Terminal Aerodrome Forecast
Issued by NWS Omaha/Valley, NE

Home | Current Version | Previous Version | Text Only | Print | Product List | Glossary Off
Versions: 1 2 3 4 5 6 7 8 9 10 11 12 13 14 15 16 17 18 19 20 21 22 23 24 25 26 27 28 29

000
FTUS43 KOAX 252145 AAB
TAFOFK
TAF AMD
KOFK 252145Z 2522/2618 01019G25KT P6SM OVC016
     FM260200 36020G30KT P6SM BKN020
     FM260800 34016G23KT P6SM OVC250
     FM261400 34015G22KT P6SM SKC=

USA.gov is the U.S. government's official web portal to all federal, state and local government web resources and services.